createdAt,value
2023-02-12T00:04:32.337Z,100265.51
2023-02-12T00:09:40.206Z,100268.24
2023-02-12T00:14:47.920Z,100267.48
2023-02-12T00:19:55.477Z,100263.05
2023-02-12T00:25:03.195Z,100269.70
2023-02-12T00:30:12.414Z,100274.30
2023-02-12T00:35:20.066Z,100272.90
2023-02-12T00:40:27.310Z,100268.28
2023-02-12T00:45:33.095Z,100269.19
2023-02-12T00:50:41.460Z,100274.41
2023-02-12T00:55:49.536Z,100279.23
2023-02-12T01:00:58.098Z,100280.66
2023-02-12T01:06:06.700Z,100285.58
2023-02-12T01:11:16.459Z,100289.81
2023-02-12T01:16:25.095Z,100288.81
2023-02-12T01:21:34.388Z,100289.26
2023-02-12T01:26:42.057Z,100297.70
2023-02-12T01:31:49.734Z,100310.21
2023-02-12T01:36:57.324Z,100318.30
2023-02-12T01:42:06.359Z,100320.86
2023-02-12T01:47:19.708Z,100321.17
2023-02-12T01:52:30.138Z,100320.48
2023-02-12T01:57:41.060Z,100327.68
2023-02-12T02:02:50.754Z,100335.95
2023-02-12T02:07:58.131Z,100343.64
2023-02-12T02:13:21.326Z,100348.60
2023-02-12T02:18:36.575Z,100350.16
2023-02-12T02:29:00.109Z,100371.66
2023-02-12T02:34:17.151Z,100388.27
2023-02-12T02:39:32.009Z,100398.70
2023-02-12T02:44:45.044Z,100409.42
2023-02-12T02:49:56.432Z,100417.13
2023-02-12T02:55:10.236Z,100418.02
2023-02-12T03:00:25.682Z,100420.33
2023-02-12T03:05:38.810Z,100431.82
2023-02-12T03:10:50.922Z,100440.35
2023-02-12T03:16:05.626Z,100443.25
2023-02-12T03:21:18.866Z,100452.98
2023-02-12T03:26:33.015Z,100475.44
2023-02-12T03:31:55.896Z,100479.22
2023-02-12T03:37:07.298Z,100475.08
2023-02-12T03:42:20.844Z,100487.83
2023-02-12T03:47:37.361Z,100491.89
2023-02-12T03:52:46.817Z,100505.48
2023-02-12T03:58:01.023Z,100509.04
2023-02-12T04:03:09.139Z,100526.23
2023-02-12T04:08:17.180Z,100538.20
2023-02-12T04:13:34.241Z,100550.36
2023-02-12T04:18:45.413Z,100553.61
2023-02-12T04:24:04.688Z,100566.66
2023-02-12T04:29:23.238Z,100572.06
2023-02-12T04:34:39.583Z,100584.54
2023-02-12T04:39:49.883Z,100593.53
2023-02-12T04:44:57.316Z,100597.83
2023-02-12T04:50:04.686Z,100615.35
2023-02-12T04:55:10.690Z,100629.33
2023-02-12T05:00:20.691Z,100638.52
2023-02-12T05:05:28.489Z,100651.77
2023-02-12T05:10:36.198Z,100660.80
2023-02-12T05:15:44.706Z,100675.28
2023-02-12T05:21:01.378Z,100678.46
2023-02-12T05:26:12.526Z,100687.34
2023-02-12T05:31:22.506Z,100684.75
2023-02-12T05:36:30.585Z,100697.77
2023-02-12T05:41:38.361Z,100712.00
2023-02-12T05:46:46.325Z,100725.25
2023-02-12T05:51:54.091Z,100742.36
2023-02-12T05:57:01.537Z,100747.30
2023-02-12T06:02:08.904Z,100761.05
2023-02-12T06:07:16.254Z,100767.63
2023-02-12T06:12:24.136Z,100779.17
2023-02-12T06:17:31.494Z,100782.69
2023-02-12T06:22:40.908Z,100788.12
2023-02-12T06:27:48.290Z,100795.91
2023-02-12T06:32:54.120Z,100804.52
2023-02-12T06:38:02.078Z,100809.55
2023-02-12T06:43:09.447Z,100814.73
2023-02-12T06:48:15.000Z,100818.42
2023-02-12T06:53:22.723Z,100824.04
2023-02-12T06:58:30.118Z,100834.96
2023-02-12T07:03:39.639Z,100842.31
2023-02-12T07:08:48.072Z,100850.58
2023-02-12T07:13:59.052Z,100864.84
2023-02-12T07:19:06.575Z,100872.66
2023-02-12T07:24:15.522Z,100874.70
2023-02-12T07:29:22.716Z,100886.94
2023-02-12T07:34:30.216Z,100899.50
2023-02-12T07:39:37.828Z,100905.54
2023-02-12T07:44:45.799Z,100913.68
2023-02-12T07:49:53.434Z,100916.42
2023-02-12T07:55:00.765Z,100923.86
2023-02-12T08:00:11.011Z,100939.48
2023-02-12T08:05:18.326Z,100944.73
2023-02-12T08:10:25.523Z,100955.48
2023-02-12T08:15:31.090Z,100957.96
2023-02-12T08:20:38.622Z,100955.39
2023-02-12T08:25:46.748Z,100955.89
2023-02-12T08:31:03.544Z,100960.17
2023-02-12T08:36:15.014Z,100962.92
2023-02-12T08:41:26.571Z,100964.25
2023-02-12T08:46:36.125Z,100969.39
2023-02-12T08:51:48.940Z,100973.11
2023-02-12T08:57:00.424Z,100976.60
2023-02-12T09:02:09.053Z,100992.52
2023-02-12T09:07:16.291Z,101005.52
2023-02-12T09:12:22.792Z,101016.66
2023-02-12T09:17:30.758Z,101023.50
2023-02-12T09:22:40.068Z,101030.86
2023-02-12T09:27:48.083Z,101042.87
2023-02-12T09:32:56.301Z,101050.02
2023-02-12T09:38:04.237Z,101057.64
2023-02-12T09:43:19.131Z,101051.52
2023-02-12T09:48:47.505Z,101060.70
2023-02-12T09:54:02.942Z,101060.64
2023-02-12T09:59:16.167Z,101059.57
2023-02-12T10:04:24.921Z,101056.52
2023-02-12T10:09:54.681Z,101064.06
2023-02-12T10:15:16.299Z,101065.07
2023-02-12T10:20:41.925Z,101065.38
2023-02-12T10:25:54.394Z,101073.11
2023-02-12T10:31:05.045Z,101077.33
2023-02-12T10:36:24.810Z,101072.95
2023-02-12T10:41:34.485Z,101068.08
2023-02-12T10:46:43.228Z,101064.28
2023-02-12T10:52:03.824Z,101061.26
2023-02-12T10:57:15.784Z,101068.29
2023-02-12T11:02:29.062Z,101061.35
2023-02-12T11:07:49.917Z,101054.48
2023-02-12T11:12:58.466Z,101061.31
2023-02-12T11:19:37.929Z,101063.66
2023-02-12T11:24:42.283Z,101062.25
2023-02-12T11:29:49.198Z,101070.61
2023-02-12T11:35:06.439Z,101072.39
2023-02-12T11:40:19.749Z,101064.20
2023-02-12T11:45:34.975Z,101071.16
2023-02-12T11:50:46.111Z,101069.68
2023-02-12T11:55:57.393Z,101065.28
2023-02-12T12:01:09.138Z,101058.92
2023-02-12T12:06:25.962Z,101054.71
2023-02-12T12:11:38.417Z,101056.82
2023-02-12T12:17:07.808Z,101056.48
2023-02-12T12:22:23.282Z,101048.33
2023-02-12T12:27:55.267Z,101042.67
2023-02-12T12:33:03.541Z,101036.50
2023-02-12T12:38:16.649Z,101036.17
2023-02-12T12:43:31.059Z,101039.00
2023-02-12T12:48:55.274Z,101030.40
2023-02-12T12:54:20.472Z,101032.81
2023-02-12T13:00:12.182Z,101034.54
2023-02-12T13:05:53.078Z,101035.61
2023-02-12T13:11:01.840Z,101039.95
2023-02-12T13:20:49.022Z,101051.88
2023-02-12T13:26:04.447Z,101055.76
2023-02-12T13:36:45.396Z,101042.96
2023-02-12T13:42:13.551Z,101045.54
2023-02-12T13:47:30.337Z,101051.17
2023-02-12T13:52:39.056Z,101052.56
2023-02-12T13:57:46.451Z,101055.02
2023-02-12T14:02:54.925Z,101050.88
2023-02-12T14:08:06.504Z,101045.84
2023-02-12T14:13:22.132Z,101051.46
2023-02-12T14:18:36.443Z,101057.92
2023-02-12T14:23:44.290Z,101056.58
2023-02-12T14:28:57.806Z,101052.06
2023-02-12T14:34:49.935Z,101042.02
2023-02-12T14:40:37.782Z,101036.17
2023-02-12T14:45:45.198Z,101039.88
2023-02-12T14:50:53.824Z,101042.34
2023-02-12T14:56:02.576Z,101042.84
2023-02-12T15:01:10.852Z,101042.88
2023-02-12T15:06:22.567Z,101047.02
2023-02-12T15:11:37.148Z,101054.61
2023-02-12T15:17:00.032Z,101054.43
2023-02-12T15:22:24.503Z,101053.84
2023-02-12T15:27:32.792Z,101059.51
2023-02-12T15:32:43.238Z,101059.39
2023-02-12T15:37:51.980Z,101058.39
2023-02-12T15:43:01.868Z,101068.19
2023-02-12T15:48:15.353Z,101078.48
2023-02-12T15:53:24.477Z,101080.73
2023-02-12T15:58:34.312Z,101083.61
2023-02-12T16:03:43.780Z,101092.04
2023-02-12T16:08:56.999Z,101085.03
2023-02-12T16:14:11.024Z,101088.54
2023-02-12T16:19:26.010Z,101086.02
2023-02-12T16:24:37.279Z,101089.13
2023-02-12T16:29:52.034Z,101098.02
2023-02-12T16:35:06.088Z,101105.23
2023-02-12T16:40:24.184Z,101117.84
2023-02-12T16:45:46.546Z,101123.05
2023-02-12T16:50:58.426Z,101130.91
2023-02-12T16:56:07.440Z,101135.37
2023-02-12T17:01:19.537Z,101129.48
2023-02-12T17:06:29.706Z,101127.08
2023-02-12T17:11:36.861Z,101134.19
2023-02-12T17:20:14.439Z,101131.90
2023-02-12T17:25:22.017Z,101140.38
2023-02-12T17:30:32.773Z,101149.25
2023-02-12T17:35:40.949Z,101141.96
2023-02-12T17:40:48.481Z,101137.33
2023-02-12T17:45:58.194Z,101128.27
2023-02-12T17:51:06.397Z,101130.14
2023-02-12T17:56:15.424Z,101129.88
2023-02-12T18:01:24.703Z,101128.73
2023-02-12T18:06:34.600Z,101118.03
2023-02-12T18:11:43.461Z,101124.10
2023-02-12T18:21:12.312Z,101128.84
2023-02-12T18:26:21.636Z,101131.17
2023-02-12T18:31:30.140Z,101134.15
2023-02-12T18:36:37.992Z,101131.24
2023-02-12T18:41:46.743Z,101125.56
2023-02-12T18:46:55.137Z,101122.52
2023-02-12T18:52:04.014Z,101122.73
2023-02-12T18:57:11.926Z,101120.62
2023-02-12T19:02:19.633Z,101119.23
2023-02-12T19:07:28.444Z,101120.05
2023-02-12T19:12:36.359Z,101118.81
2023-02-12T19:17:43.971Z,101115.91
2023-02-12T19:22:51.696Z,101119.09
2023-02-12T19:27:59.950Z,101116.56
2023-02-12T19:33:08.455Z,101115.48
2023-02-12T19:38:16.289Z,101106.86
2023-02-12T19:43:24.259Z,101093.20
2023-02-12T19:48:32.069Z,101090.72
2023-02-12T19:53:40.110Z,101098.21
2023-02-12T19:58:48.112Z,101101.77
2023-02-12T20:03:57.133Z,101096.20
2023-02-12T20:09:06.368Z,101099.21
2023-02-12T20:14:15.454Z,101105.10
2023-02-12T20:19:26.310Z,101103.90
2023-02-12T20:24:35.756Z,101105.52
2023-02-12T20:29:43.532Z,101099.77
2023-02-12T20:34:54.478Z,101107.65
2023-02-12T20:40:02.091Z,101105.10
2023-02-12T20:45:10.514Z,101106.91
2023-02-12T20:50:18.410Z,101108.57
2023-02-12T20:55:25.880Z,101109.35
2023-02-12T21:00:33.874Z,101101.45
2023-02-12T21:05:42.614Z,101106.45
2023-02-12T21:10:50.038Z,101105.27
2023-02-12T21:16:07.288Z,101101.49
2023-02-12T21:21:17.608Z,101106.20
2023-02-12T21:26:28.721Z,101105.75
2023-02-12T21:31:39.137Z,101113.96
2023-02-12T21:36:48.685Z,101111.70
2023-02-12T21:41:58.186Z,101111.66
2023-02-12T21:47:07.534Z,101110.08
2023-02-12T21:52:15.303Z,101115.37
2023-02-12T21:57:23.277Z,101113.57
2023-02-12T22:02:31.068Z,101113.02
2023-02-12T22:07:38.613Z,101119.11
2023-02-12T22:12:46.006Z,101125.45
2023-02-12T22:17:53.990Z,101123.41
2023-02-12T22:28:30.957Z,101120.91
2023-02-12T22:33:36.627Z,101122.88
2023-02-12T22:38:41.671Z,101125.42
2023-02-12T22:43:45.972Z,101132.41
2023-02-12T22:48:50.112Z,101127.04
2023-02-12T22:53:55.829Z,101123.70
2023-02-12T22:59:02.052Z,101119.48
2023-02-12T23:04:06.727Z,101126.11
2023-02-12T23:09:13.819Z,101123.70
2023-02-12T23:14:18.330Z,101118.88
2023-02-12T23:19:22.560Z,101117.14
2023-02-12T23:24:27.051Z,101108.59
2023-02-12T23:29:31.073Z,101100.84
2023-02-12T23:34:34.913Z,101106.39
2023-02-12T23:39:38.998Z,101107.83
2023-02-12T23:44:42.725Z,101103.85
2023-02-12T23:49:46.443Z,101108.06
2023-02-12T23:54:50.586Z,101112.17
2023-02-12T23:59:54.848Z,101110.17
